sensor_id;sensor_type;location;lat;lon;timestamp;P1;durP1;ratioP1;P2;durP2;ratioP2
59223;SDS011;45592;52.094;4.330;2022-07-19T00:01:30;9.35;;;5.90;;
59223;SDS011;45592;52.094;4.330;2022-07-19T00:03:56;8.35;;;5.10;;
59223;SDS011;45592;52.094;4.330;2022-07-19T00:06:21;9.07;;;6.00;;
59223;SDS011;45592;52.094;4.330;2022-07-19T00:08:47;10.65;;;6.80;;
59223;SDS011;45592;52.094;4.330;2022-07-19T00:11:13;10.45;;;6.63;;
59223;SDS011;45592;52.094;4.330;2022-07-19T00:13:38;9.02;;;6.00;;
59223;SDS011;45592;52.094;4.330;2022-07-19T00:16:04;14.85;;;6.35;;
59223;SDS011;45592;52.094;4.330;2022-07-19T00:18:29;10.85;;;6.63;;
59223;SDS011;45592;52.094;4.330;2022-07-19T00:20:55;9.57;;;6.25;;
59223;SDS011;45592;52.094;4.330;2022-07-19T00:23:20;9.13;;;5.65;;
59223;SDS011;45592;52.094;4.330;2022-07-19T00:25:46;11.05;;;6.60;;
59223;SDS011;45592;52.094;4.330;2022-07-19T00:28:11;12.60;;;6.85;;
59223;SDS011;45592;52.094;4.330;2022-07-19T00:30:37;14.00;;;6.32;;
59223;SDS011;45592;52.094;4.330;2022-07-19T00:33:02;12.10;;;6.55;;
59223;SDS011;45592;52.094;4.330;2022-07-19T00:35:33;10.13;;;6.32;;
59223;SDS011;45592;52.094;4.330;2022-07-19T00:38:09;8.88;;;5.88;;
59223;SDS011;45592;52.094;4.330;2022-07-19T00:40:36;9.73;;;6.03;;
59223;SDS011;45592;52.094;4.330;2022-07-19T00:43:02;10.77;;;5.75;;
59223;SDS011;45592;52.094;4.330;2022-07-19T00:45:28;10.25;;;6.15;;
59223;SDS011;45592;52.094;4.330;2022-07-19T00:47:54;10.05;;;6.00;;
59223;SDS011;45592;52.094;4.330;2022-07-19T00:50:20;9.98;;;5.80;;
59223;SDS011;45592;52.094;4.330;2022-07-19T00:52:46;13.18;;;6.18;;
59223;SDS011;45592;52.094;4.330;2022-07-19T00:55:14;11.30;;;6.45;;
59223;SDS011;45592;52.094;4.330;2022-07-19T00:57:43;11.10;;;6.03;;
59223;SDS011;45592;52.094;4.330;2022-07-19T01:00:09;12.27;;;6.28;;
59223;SDS011;45592;52.094;4.330;2022-07-19T01:02:35;10.75;;;6.05;;
59223;SDS011;45592;52.094;4.330;2022-07-19T01:05:02;12.10;;;6.53;;
59223;SDS011;45592;52.094;4.330;2022-07-19T01:07:29;13.15;;;6.30;;
59223;SDS011;45592;52.094;4.330;2022-07-19T01:09:54;10.38;;;5.47;;
59223;SDS011;45592;52.094;4.330;2022-07-19T01:12:19;10.95;;;5.88;;
59223;SDS011;45592;52.094;4.330;2022-07-19T01:14:47;10.82;;;5.93;;
59223;SDS011;45592;52.094;4.330;2022-07-19T01:17:13;10.23;;;6.10;;
59223;SDS011;45592;52.094;4.330;2022-07-19T01:19:38;8.70;;;5.75;;
59223;SDS011;45592;52.094;4.330;2022-07-19T01:22:04;12.15;;;5.55;;
59223;SDS011;45592;52.094;4.330;2022-07-19T01:24:29;10.65;;;6.68;;
59223;SDS011;45592;52.094;4.330;2022-07-19T01:26:54;10.25;;;5.80;;
59223;SDS011;45592;52.094;4.330;2022-07-19T01:29:20;8.60;;;5.32;;
59223;SDS011;45592;52.094;4.330;2022-07-19T01:31:45;10.05;;;5.53;;
59223;SDS011;45592;52.094;4.330;2022-07-19T01:34:10;10.75;;;5.80;;
59223;SDS011;45592;52.094;4.330;2022-07-19T01:36:36;9.23;;;5.93;;
59223;SDS011;45592;52.094;4.330;2022-07-19T01:39:01;10.32;;;5.90;;
59223;SDS011;45592;52.094;4.330;2022-07-19T01:41:26;10.52;;;5.82;;
59223;SDS011;45592;52.094;4.330;2022-07-19T01:43:52;9.27;;;5.70;;
59223;SDS011;45592;52.094;4.330;2022-07-19T01:46:17;9.90;;;5.88;;
59223;SDS011;45592;52.094;4.330;2022-07-19T01:48:42;10.95;;;5.68;;
59223;SDS011;45592;52.094;4.330;2022-07-19T01:51:08;8.90;;;5.95;;
59223;SDS011;45592;52.094;4.330;2022-07-19T01:53:34;12.15;;;5.63;;
59223;SDS011;45592;52.094;4.330;2022-07-19T01:55:59;11.55;;;6.20;;
59223;SDS011;45592;52.094;4.330;2022-07-19T01:58:26;12.50;;;7.05;;
59223;SDS011;45592;52.094;4.330;2022-07-19T02:00:51;11.10;;;6.63;;
59223;SDS011;45592;52.094;4.330;2022-07-19T02:03:16;12.98;;;6.97;;
59223;SDS011;45592;52.094;4.330;2022-07-19T02:05:43;14.90;;;5.85;;
59223;SDS011;45592;52.094;4.330;2022-07-19T02:08:08;10.00;;;6.18;;
59223;SDS011;45592;52.094;4.330;2022-07-19T02:10:34;12.05;;;6.47;;
59223;SDS011;45592;52.094;4.330;2022-07-19T02:12:59;11.00;;;6.85;;
59223;SDS011;45592;52.094;4.330;2022-07-19T02:15:24;12.45;;;6.43;;
59223;SDS011;45592;52.094;4.330;2022-07-19T02:17:50;13.35;;;6.38;;
59223;SDS011;45592;52.094;4.330;2022-07-19T02:20:15;11.05;;;6.15;;
59223;SDS011;45592;52.094;4.330;2022-07-19T02:22:40;11.82;;;6.07;;
59223;SDS011;45592;52.094;4.330;2022-07-19T02:25:06;10.65;;;6.45;;
59223;SDS011;45592;52.094;4.330;2022-07-19T02:27:32;11.15;;;6.22;;
59223;SDS011;45592;52.094;4.330;2022-07-19T02:29:57;12.77;;;7.18;;
59223;SDS011;45592;52.094;4.330;2022-07-19T02:32:23;16.05;;;7.03;;
59223;SDS011;45592;52.094;4.330;2022-07-19T02:34:48;13.07;;;7.55;;
59223;SDS011;45592;52.094;4.330;2022-07-19T02:37:14;14.40;;;7.22;;
59223;SDS011;45592;52.094;4.330;2022-07-19T02:39:39;13.07;;;7.95;;
59223;SDS011;45592;52.094;4.330;2022-07-19T02:42:04;11.43;;;7.35;;
59223;SDS011;45592;52.094;4.330;2022-07-19T02:44:30;13.85;;;6.82;;
59223;SDS011;45592;52.094;4.330;2022-07-19T02:46:56;11.70;;;6.07;;
59223;SDS011;45592;52.094;4.330;2022-07-19T02:49:21;10.93;;;6.32;;
59223;SDS011;45592;52.094;4.330;2022-07-19T02:51:47;11.57;;;6.05;;
59223;SDS011;45592;52.094;4.330;2022-07-19T02:54:12;10.18;;;6.20;;
59223;SDS011;45592;52.094;4.330;2022-07-19T02:56:38;9.88;;;6.30;;
59223;SDS011;45592;52.094;4.330;2022-07-19T02:59:04;10.07;;;5.95;;
59223;SDS011;45592;52.094;4.330;2022-07-19T03:01:29;13.73;;;6.68;;
59223;SDS011;45592;52.094;4.330;2022-07-19T03:03:56;11.48;;;7.22;;
59223;SDS011;45592;52.094;4.330;2022-07-19T03:06:22;12.30;;;6.93;;
59223;SDS011;45592;52.094;4.330;2022-07-19T03:08:47;12.60;;;7.45;;
59223;SDS011;45592;52.094;4.330;2022-07-19T03:11:13;12.10;;;7.13;;
59223;SDS011;45592;52.094;4.330;2022-07-19T03:13:38;14.07;;;6.25;;
59223;SDS011;45592;52.094;4.330;2022-07-19T03:16:04;11.90;;;6.68;;
59223;SDS011;45592;52.094;4.330;2022-07-19T03:18:30;11.88;;;6.00;;
59223;SDS011;45592;52.094;4.330;2022-07-19T03:20:56;12.05;;;6.00;;
59223;SDS011;45592;52.094;4.330;2022-07-19T03:23:23;14.73;;;6.57;;
59223;SDS011;45592;52.094;4.330;2022-07-19T03:25:50;11.45;;;7.50;;
59223;SDS011;45592;52.094;4.330;2022-07-19T03:28:15;12.52;;;7.28;;
59223;SDS011;45592;52.094;4.330;2022-07-19T03:30:41;13.88;;;7.68;;
59223;SDS011;45592;52.094;4.330;2022-07-19T03:33:06;11.70;;;6.80;;
59223;SDS011;45592;52.094;4.330;2022-07-19T03:35:31;9.88;;;6.95;;
59223;SDS011;45592;52.094;4.330;2022-07-19T03:37:57;10.32;;;6.63;;
59223;SDS011;45592;52.094;4.330;2022-07-19T03:40:22;12.15;;;6.13;;
59223;SDS011;45592;52.094;4.330;2022-07-19T03:42:47;10.63;;;6.32;;
59223;SDS011;45592;52.094;4.330;2022-07-19T03:45:13;9.60;;;6.07;;
59223;SDS011;45592;52.094;4.330;2022-07-19T03:47:38;9.82;;;6.15;;
59223;SDS011;45592;52.094;4.330;2022-07-19T03:50:04;12.98;;;7.13;;
59223;SDS011;45592;52.094;4.330;2022-07-19T03:52:30;10.02;;;6.88;;
59223;SDS011;45592;52.094;4.330;2022-07-19T03:54:56;10.55;;;5.68;;
59223;SDS011;45592;52.094;4.330;2022-07-19T03:57:21;11.23;;;5.97;;
59223;SDS011;45592;52.094;4.330;2022-07-19T03:59:46;11.63;;;7.90;;
59223;SDS011;45592;52.094;4.330;2022-07-19T04:02:12;10.82;;;7.28;;
59223;SDS011;45592;52.094;4.330;2022-07-19T04:04:37;13.32;;;7.68;;
59223;SDS011;45592;52.094;4.330;2022-07-19T04:07:02;13.02;;;8.02;;
59223;SDS011;45592;52.094;4.330;2022-07-19T04:09:28;15.75;;;8.55;;
59223;SDS011;45592;52.094;4.330;2022-07-19T04:11:53;13.85;;;7.68;;
59223;SDS011;45592;52.094;4.330;2022-07-19T04:14:18;13.70;;;6.68;;
59223;SDS011;45592;52.094;4.330;2022-07-19T04:16:44;11.75;;;6.57;;
59223;SDS011;45592;52.094;4.330;2022-07-19T04:19:09;10.20;;;6.07;;
59223;SDS011;45592;52.094;4.330;2022-07-19T04:21:35;11.02;;;6.63;;
59223;SDS011;45592;52.094;4.330;2022-07-19T04:24:00;11.65;;;6.97;;
59223;SDS011;45592;52.094;4.330;2022-07-19T04:26:26;12.23;;;7.70;;
59223;SDS011;45592;52.094;4.330;2022-07-19T04:28:51;10.13;;;6.10;;
59223;SDS011;45592;52.094;4.330;2022-07-19T04:31:17;9.40;;;5.70;;
59223;SDS011;45592;52.094;4.330;2022-07-19T04:33:42;11.57;;;6.85;;
59223;SDS011;45592;52.094;4.330;2022-07-19T04:36:08;13.65;;;7.47;;
59223;SDS011;45592;52.094;4.330;2022-07-19T04:38:33;14.88;;;8.75;;
59223;SDS011;45592;52.094;4.330;2022-07-19T04:40:58;17.13;;;8.80;;
59223;SDS011;45592;52.094;4.330;2022-07-19T04:43:24;15.77;;;7.85;;
59223;SDS011;45592;52.094;4.330;2022-07-19T04:45:49;14.93;;;7.82;;
59223;SDS011;45592;52.094;4.330;2022-07-19T04:48:14;13.50;;;8.27;;
59223;SDS011;45592;52.094;4.330;2022-07-19T04:50:40;13.60;;;8.30;;
59223;SDS011;45592;52.094;4.330;2022-07-19T04:53:06;15.52;;;8.60;;
59223;SDS011;45592;52.094;4.330;2022-07-19T04:55:32;15.77;;;8.98;;
59223;SDS011;45592;52.094;4.330;2022-07-19T04:57:57;18.08;;;9.40;;
59223;SDS011;45592;52.094;4.330;2022-07-19T05:00:24;18.58;;;9.25;;
59223;SDS011;45592;52.094;4.330;2022-07-19T05:02:50;14.88;;;9.43;;
59223;SDS011;45592;52.094;4.330;2022-07-19T05:05:15;17.45;;;9.75;;
59223;SDS011;45592;52.094;4.330;2022-07-19T05:07:41;13.60;;;9.15;;
59223;SDS011;45592;52.094;4.330;2022-07-19T05:10:07;14.90;;;8.95;;
59223;SDS011;45592;52.094;4.330;2022-07-19T05:12:33;17.15;;;9.32;;
59223;SDS011;45592;52.094;4.330;2022-07-19T05:14:58;16.50;;;9.23;;
59223;SDS011;45592;52.094;4.330;2022-07-19T05:17:24;15.15;;;8.38;;
59223;SDS011;45592;52.094;4.330;2022-07-19T05:19:50;13.70;;;7.93;;
59223;SDS011;45592;52.094;4.330;2022-07-19T05:22:16;10.48;;;6.80;;
59223;SDS011;45592;52.094;4.330;2022-07-19T05:24:41;12.77;;;7.50;;
59223;SDS011;45592;52.094;4.330;2022-07-19T05:27:07;13.40;;;7.95;;
59223;SDS011;45592;52.094;4.330;2022-07-19T05:29:32;13.82;;;7.10;;
59223;SDS011;45592;52.094;4.330;2022-07-19T05:31:57;13.25;;;7.38;;
59223;SDS011;45592;52.094;4.330;2022-07-19T05:34:23;11.73;;;7.47;;
59223;SDS011;45592;52.094;4.330;2022-07-19T05:36:48;11.00;;;6.75;;
59223;SDS011;45592;52.094;4.330;2022-07-19T05:39:13;14.68;;;7.90;;
59223;SDS011;45592;52.094;4.330;2022-07-19T05:41:40;16.42;;;8.18;;
59223;SDS011;45592;52.094;4.330;2022-07-19T05:44:05;12.88;;;7.65;;
59223;SDS011;45592;52.094;4.330;2022-07-19T05:46:31;12.60;;;7.30;;
59223;SDS011;45592;52.094;4.330;2022-07-19T05:48:56;15.50;;;8.48;;
59223;SDS011;45592;52.094;4.330;2022-07-19T05:51:21;14.52;;;8.43;;
59223;SDS011;45592;52.094;4.330;2022-07-19T05:53:47;15.57;;;9.27;;
59223;SDS011;45592;52.094;4.330;2022-07-19T05:56:12;15.60;;;9.38;;
59223;SDS011;45592;52.094;4.330;2022-07-19T05:58:38;16.42;;;8.80;;
59223;SDS011;45592;52.094;4.330;2022-07-19T06:01:04;19.58;;;8.85;;
59223;SDS011;45592;52.094;4.330;2022-07-19T06:03:51;15.25;;;8.75;;
59223;SDS011;45592;52.094;4.330;2022-07-19T06:06:19;14.82;;;9.02;;
59223;SDS011;45592;52.094;4.330;2022-07-19T06:08:45;18.05;;;9.27;;
59223;SDS011;45592;52.094;4.330;2022-07-19T06:11:11;16.00;;;9.98;;
59223;SDS011;45592;52.094;4.330;2022-07-19T06:13:37;16.10;;;8.50;;
59223;SDS011;45592;52.094;4.330;2022-07-19T06:16:03;21.23;;;9.38;;
59223;SDS011;45592;52.094;4.330;2022-07-19T06:18:29;14.98;;;9.20;;
59223;SDS011;45592;52.094;4.330;2022-07-19T06:21:00;14.25;;;8.95;;
59223;SDS011;45592;52.094;4.330;2022-07-19T06:23:26;17.38;;;9.40;;
59223;SDS011;45592;52.094;4.330;2022-07-19T06:25:52;17.77;;;8.90;;
59223;SDS011;45592;52.094;4.330;2022-07-19T06:28:17;16.98;;;9.10;;
59223;SDS011;45592;52.094;4.330;2022-07-19T06:30:42;16.92;;;8.95;;
59223;SDS011;45592;52.094;4.330;2022-07-19T06:33:07;17.05;;;8.88;;
59223;SDS011;45592;52.094;4.330;2022-07-19T06:35:33;16.60;;;8.38;;
59223;SDS011;45592;52.094;4.330;2022-07-19T06:37:58;18.30;;;8.95;;
59223;SDS011;45592;52.094;4.330;2022-07-19T06:40:23;15.32;;;8.50;;
59223;SDS011;45592;52.094;4.330;2022-07-19T06:42:49;13.88;;;8.55;;
59223;SDS011;45592;52.094;4.330;2022-07-19T06:45:14;15.23;;;8.13;;
59223;SDS011;45592;52.094;4.330;2022-07-19T06:47:40;15.43;;;7.93;;
59223;SDS011;45592;52.094;4.330;2022-07-19T06:50:06;14.65;;;8.60;;
59223;SDS011;45592;52.094;4.330;2022-07-19T06:52:31;18.65;;;8.82;;
59223;SDS011;45592;52.094;4.330;2022-07-19T06:54:57;17.75;;;9.15;;
59223;SDS011;45592;52.094;4.330;2022-07-19T06:57:22;16.13;;;8.70;;
59223;SDS011;45592;52.094;4.330;2022-07-19T06:59:47;22.42;;;9.00;;
59223;SDS011;45592;52.094;4.330;2022-07-19T07:02:13;14.23;;;8.45;;
59223;SDS011;45592;52.094;4.330;2022-07-19T07:04:38;18.25;;;8.82;;
59223;SDS011;45592;52.094;4.330;2022-07-19T07:07:03;14.50;;;8.20;;
59223;SDS011;45592;52.094;4.330;2022-07-19T07:09:29;17.40;;;7.38;;
59223;SDS011;45592;52.094;4.330;2022-07-19T07:11:55;15.48;;;8.88;;
59223;SDS011;45592;52.094;4.330;2022-07-19T07:14:20;15.38;;;7.80;;
59223;SDS011;45592;52.094;4.330;2022-07-19T07:16:45;13.75;;;7.43;;
59223;SDS011;45592;52.094;4.330;2022-07-19T07:19:11;11.85;;;7.68;;
59223;SDS011;45592;52.094;4.330;2022-07-19T07:21:36;21.55;;;7.78;;
59223;SDS011;45592;52.094;4.330;2022-07-19T07:24:02;12.75;;;7.35;;
59223;SDS011;45592;52.094;4.330;2022-07-19T07:26:28;15.52;;;6.82;;
59223;SDS011;45592;52.094;4.330;2022-07-19T07:28:55;14.30;;;7.07;;
59223;SDS011;45592;52.094;4.330;2022-07-19T07:31:20;15.13;;;7.40;;
59223;SDS011;45592;52.094;4.330;2022-07-19T07:33:45;13.63;;;7.65;;
59223;SDS011;45592;52.094;4.330;2022-07-19T07:36:11;12.57;;;6.78;;
59223;SDS011;45592;52.094;4.330;2022-07-19T07:38:36;16.67;;;9.07;;
59223;SDS011;45592;52.094;4.330;2022-07-19T07:41:03;13.93;;;7.20;;
59223;SDS011;45592;52.094;4.330;2022-07-19T07:43:28;14.48;;;6.53;;
59223;SDS011;45592;52.094;4.330;2022-07-19T07:45:54;19.95;;;6.97;;
59223;SDS011;45592;52.094;4.330;2022-07-19T07:48:20;12.68;;;6.47;;
59223;SDS011;45592;52.094;4.330;2022-07-19T07:50:45;13.77;;;6.35;;
59223;SDS011;45592;52.094;4.330;2022-07-19T07:53:11;17.63;;;6.72;;
59223;SDS011;45592;52.094;4.330;2022-07-19T07:55:36;12.13;;;5.20;;
59223;SDS011;45592;52.094;4.330;2022-07-19T07:58:05;13.30;;;5.72;;
59223;SDS011;45592;52.094;4.330;2022-07-19T08:00:34;17.38;;;6.15;;
59223;SDS011;45592;52.094;4.330;2022-07-19T08:03:00;11.30;;;5.80;;
59223;SDS011;45592;52.094;4.330;2022-07-19T08:05:25;11.00;;;5.80;;
59223;SDS011;45592;52.094;4.330;2022-07-19T08:07:51;12.45;;;6.13;;
59223;SDS011;45592;52.094;4.330;2022-07-19T08:10:16;14.13;;;7.18;;
59223;SDS011;45592;52.094;4.330;2022-07-19T08:12:42;11.23;;;6.63;;
59223;SDS011;45592;52.094;4.330;2022-07-19T08:15:07;10.60;;;6.90;;
59223;SDS011;45592;52.094;4.330;2022-07-19T08:17:33;12.48;;;7.22;;
59223;SDS011;45592;52.094;4.330;2022-07-19T08:19:58;11.57;;;5.93;;
59223;SDS011;45592;52.094;4.330;2022-07-19T08:22:25;10.50;;;5.97;;
59223;SDS011;45592;52.094;4.330;2022-07-19T08:24:50;14.52;;;6.03;;
59223;SDS011;45592;52.094;4.330;2022-07-19T08:27:16;16.70;;;6.72;;
59223;SDS011;45592;52.094;4.330;2022-07-19T08:29:41;16.40;;;7.85;;
59223;SDS011;45592;52.094;4.330;2022-07-19T08:32:06;15.43;;;6.85;;
59223;SDS011;45592;52.094;4.330;2022-07-19T08:34:32;18.45;;;6.78;;
59223;SDS011;45592;52.094;4.330;2022-07-19T08:36:57;13.95;;;6.35;;
59223;SDS011;45592;52.094;4.330;2022-07-19T08:39:25;10.85;;;5.90;;
59223;SDS011;45592;52.094;4.330;2022-07-19T08:41:50;10.93;;;5.60;;
59223;SDS011;45592;52.094;4.330;2022-07-19T08:44:16;13.48;;;5.13;;
59223;SDS011;45592;52.094;4.330;2022-07-19T08:46:41;14.93;;;5.93;;
59223;SDS011;45592;52.094;4.330;2022-07-19T08:49:10;11.35;;;5.60;;
59223;SDS011;45592;52.094;4.330;2022-07-19T08:51:36;11.75;;;5.20;;
59223;SDS011;45592;52.094;4.330;2022-07-19T08:54:02;11.32;;;5.25;;
59223;SDS011;45592;52.094;4.330;2022-07-19T08:56:28;10.20;;;5.60;;
59223;SDS011;45592;52.094;4.330;2022-07-19T08:59:12;11.60;;;5.75;;
59223;SDS011;45592;52.094;4.330;2022-07-19T09:01:39;11.60;;;5.45;;
59223;SDS011;45592;52.094;4.330;2022-07-19T09:06:36;12.43;;;6.20;;
59223;SDS011;45592;52.094;4.330;2022-07-19T09:09:03;11.00;;;4.88;;
59223;SDS011;45592;52.094;4.330;2022-07-19T09:11:32;10.52;;;5.05;;
59223;SDS011;45592;52.094;4.330;2022-07-19T09:14:08;12.10;;;5.43;;
59223;SDS011;45592;52.094;4.330;2022-07-19T09:16:55;11.25;;;4.95;;
59223;SDS011;45592;52.094;4.330;2022-07-19T09:19:27;10.50;;;5.28;;
59223;SDS011;45592;52.094;4.330;2022-07-19T09:22:04;9.48;;;4.93;;
59223;SDS011;45592;52.094;4.330;2022-07-19T09:24:38;8.95;;;4.38;;
59223;SDS011;45592;52.094;4.330;2022-07-19T09:27:23;7.15;;;3.70;;
59223;SDS011;45592;52.094;4.330;2022-07-19T09:29:53;8.98;;;3.95;;
59223;SDS011;45592;52.094;4.330;2022-07-19T09:32:20;9.48;;;3.95;;
59223;SDS011;45592;52.094;4.330;2022-07-19T09:37:24;11.48;;;3.70;;
59223;SDS011;45592;52.094;4.330;2022-07-19T09:39:52;6.70;;;3.58;;
59223;SDS011;45592;52.094;4.330;2022-07-19T09:42:42;9.57;;;3.97;;
59223;SDS011;45592;52.094;4.330;2022-07-19T09:45:12;12.73;;;3.95;;
59223;SDS011;45592;52.094;4.330;2022-07-19T09:47:39;7.05;;;3.30;;
59223;SDS011;45592;52.094;4.330;2022-07-19T09:50:16;8.43;;;3.58;;
59223;SDS011;45592;52.094;4.330;2022-07-19T09:52:44;8.68;;;3.85;;
59223;SDS011;45592;52.094;4.330;2022-07-19T09:55:11;8.43;;;3.60;;
59223;SDS011;45592;52.094;4.330;2022-07-19T09:57:43;8.50;;;3.30;;
59223;SDS011;45592;52.094;4.330;2022-07-19T10:00:13;7.43;;;3.25;;
59223;SDS011;45592;52.094;4.330;2022-07-19T10:02:41;8.90;;;3.30;;
59223;SDS011;45592;52.094;4.330;2022-07-19T10:05:09;9.27;;;4.20;;
59223;SDS011;45592;52.094;4.330;2022-07-19T10:07:36;9.00;;;3.10;;
59223;SDS011;45592;52.094;4.330;2022-07-19T10:10:03;8.77;;;3.40;;
59223;SDS011;45592;52.094;4.330;2022-07-19T10:12:30;5.53;;;3.05;;
59223;SDS011;45592;52.094;4.330;2022-07-19T10:14:56;7.10;;;3.45;;
59223;SDS011;45592;52.094;4.330;2022-07-19T10:20:25;6.43;;;3.00;;
59223;SDS011;45592;52.094;4.330;2022-07-19T10:22:52;8.15;;;3.38;;
59223;SDS011;45592;52.094;4.330;2022-07-19T10:25:18;7.68;;;3.30;;
59223;SDS011;45592;52.094;4.330;2022-07-19T10:27:45;10.20;;;3.42;;
59223;SDS011;45592;52.094;4.330;2022-07-19T10:32:42;8.10;;;3.03;;
59223;SDS011;45592;52.094;4.330;2022-07-19T10:40:44;6.65;;;3.25;;
59223;SDS011;45592;52.094;4.330;2022-07-19T10:43:14;7.28;;;2.90;;
59223;SDS011;45592;52.094;4.330;2022-07-19T10:45:41;6.70;;;3.00;;
59223;SDS011;45592;52.094;4.330;2022-07-19T10:48:12;8.75;;;3.15;;
59223;SDS011;45592;52.094;4.330;2022-07-19T10:53:08;10.05;;;3.17;;
59223;SDS011;45592;52.094;4.330;2022-07-19T10:55:34;6.72;;;3.30;;
59223;SDS011;45592;52.094;4.330;2022-07-19T11:00:46;6.10;;;2.67;;
59223;SDS011;45592;52.094;4.330;2022-07-19T11:05:48;6.43;;;3.00;;
59223;SDS011;45592;52.094;4.330;2022-07-19T11:08:15;7.70;;;3.15;;
59223;SDS011;45592;52.094;4.330;2022-07-19T11:10:41;5.43;;;2.90;;
59223;SDS011;45592;52.094;4.330;2022-07-19T11:13:06;6.28;;;2.80;;
59223;SDS011;45592;52.094;4.330;2022-07-19T11:15:32;6.43;;;2.80;;
59223;SDS011;45592;52.094;4.330;2022-07-19T11:17:58;6.60;;;3.20;;
59223;SDS011;45592;52.094;4.330;2022-07-19T11:20:31;8.88;;;3.13;;
59223;SDS011;45592;52.094;4.330;2022-07-19T11:22:58;6.80;;;2.50;;
59223;SDS011;45592;52.094;4.330;2022-07-19T11:25:29;6.50;;;2.25;;
59223;SDS011;45592;52.094;4.330;2022-07-19T11:27:57;6.50;;;2.63;;
59223;SDS011;45592;52.094;4.330;2022-07-19T11:30:24;5.65;;;2.25;;
59223;SDS011;45592;52.094;4.330;2022-07-19T11:32:55;6.03;;;2.35;;
59223;SDS011;45592;52.094;4.330;2022-07-19T11:35:22;6.38;;;2.72;;
59223;SDS011;45592;52.094;4.330;2022-07-19T11:37:48;8.23;;;2.83;;
59223;SDS011;45592;52.094;4.330;2022-07-19T11:40:16;6.10;;;2.83;;
59223;SDS011;45592;52.094;4.330;2022-07-19T11:42:43;7.07;;;3.03;;
59223;SDS011;45592;52.094;4.330;2022-07-19T11:45:14;5.68;;;2.72;;
59223;SDS011;45592;52.094;4.330;2022-07-19T11:47:47;4.63;;;2.72;;
59223;SDS011;45592;52.094;4.330;2022-07-19T11:50:15;9.95;;;2.90;;
59223;SDS011;45592;52.094;4.330;2022-07-19T11:52:53;7.55;;;2.90;;
59223;SDS011;45592;52.094;4.330;2022-07-19T11:55:23;7.38;;;3.08;;
59223;SDS011;45592;52.094;4.330;2022-07-19T11:58:04;5.30;;;2.85;;
59223;SDS011;45592;52.094;4.330;2022-07-19T12:00:32;7.10;;;3.05;;
59223;SDS011;45592;52.094;4.330;2022-07-19T12:03:08;7.55;;;3.03;;
59223;SDS011;45592;52.094;4.330;2022-07-19T12:05:39;6.13;;;2.70;;
59223;SDS011;45592;52.094;4.330;2022-07-19T12:08:06;7.50;;;3.03;;
59223;SDS011;45592;52.094;4.330;2022-07-19T12:13:07;7.82;;;3.00;;
59223;SDS011;45592;52.094;4.330;2022-07-19T12:18:17;8.32;;;3.13;;
59223;SDS011;45592;52.094;4.330;2022-07-19T12:20:45;8.90;;;3.38;;
59223;SDS011;45592;52.094;4.330;2022-07-19T12:23:30;9.10;;;3.35;;
59223;SDS011;45592;52.094;4.330;2022-07-19T12:26:02;6.55;;;3.10;;
59223;SDS011;45592;52.094;4.330;2022-07-19T12:28:29;7.22;;;2.97;;
59223;SDS011;45592;52.094;4.330;2022-07-19T12:31:02;7.63;;;3.20;;
59223;SDS011;45592;52.094;4.330;2022-07-19T12:33:28;7.85;;;2.85;;
59223;SDS011;45592;52.094;4.330;2022-07-19T12:35:55;5.25;;;3.05;;
59223;SDS011;45592;52.094;4.330;2022-07-19T12:38:26;13.82;;;3.28;;
59223;SDS011;45592;52.094;4.330;2022-07-19T12:41:04;8.07;;;3.17;;
59223;SDS011;45592;52.094;4.330;2022-07-19T12:43:31;8.65;;;3.33;;
59223;SDS011;45592;52.094;4.330;2022-07-19T12:45:57;8.05;;;3.03;;
59223;SDS011;45592;52.094;4.330;2022-07-19T12:48:28;9.55;;;2.97;;
59223;SDS011;45592;52.094;4.330;2022-07-19T12:50:55;8.55;;;3.22;;
59223;SDS011;45592;52.094;4.330;2022-07-19T12:53:21;6.05;;;2.85;;
59223;SDS011;45592;52.094;4.330;2022-07-19T12:55:47;6.97;;;2.97;;
59223;SDS011;45592;52.094;4.330;2022-07-19T12:58:14;8.38;;;3.33;;
59223;SDS011;45592;52.094;4.330;2022-07-19T13:01:01;8.45;;;3.53;;
59223;SDS011;45592;52.094;4.330;2022-07-19T13:03:27;9.18;;;3.22;;
59223;SDS011;45592;52.094;4.330;2022-07-19T13:05:52;7.18;;;3.47;;
59223;SDS011;45592;52.094;4.330;2022-07-19T13:08:17;6.93;;;3.60;;
59223;SDS011;45592;52.094;4.330;2022-07-19T13:10:43;10.68;;;3.83;;
59223;SDS011;45592;52.094;4.330;2022-07-19T13:13:09;8.77;;;3.58;;
59223;SDS011;45592;52.094;4.330;2022-07-19T13:15:34;9.57;;;3.53;;
59223;SDS011;45592;52.094;4.330;2022-07-19T13:18:02;7.18;;;3.47;;
59223;SDS011;45592;52.094;4.330;2022-07-19T13:20:28;8.40;;;3.38;;
59223;SDS011;45592;52.094;4.330;2022-07-19T13:22:53;9.85;;;3.08;;
59223;SDS011;45592;52.094;4.330;2022-07-19T13:25:19;11.05;;;3.50;;
59223;SDS011;45592;52.094;4.330;2022-07-19T13:27:44;5.68;;;3.47;;
59223;SDS011;45592;52.094;4.330;2022-07-19T13:30:10;10.25;;;3.67;;
59223;SDS011;45592;52.094;4.330;2022-07-19T13:32:36;9.35;;;3.50;;
59223;SDS011;45592;52.094;4.330;2022-07-19T13:35:01;7.05;;;3.58;;
59223;SDS011;45592;52.094;4.330;2022-07-19T13:37:26;8.80;;;3.58;;
59223;SDS011;45592;52.094;4.330;2022-07-19T13:39:52;8.05;;;3.50;;
59223;SDS011;45592;52.094;4.330;2022-07-19T13:42:17;8.90;;;3.72;;
59223;SDS011;45592;52.094;4.330;2022-07-19T13:44:42;9.15;;;3.47;;
59223;SDS011;45592;52.094;4.330;2022-07-19T13:47:08;8.18;;;3.60;;
59223;SDS011;45592;52.094;4.330;2022-07-19T13:49:33;8.00;;;4.07;;
59223;SDS011;45592;52.094;4.330;2022-07-19T13:51:59;8.13;;;3.58;;
59223;SDS011;45592;52.094;4.330;2022-07-19T13:54:25;9.23;;;3.55;;
59223;SDS011;45592;52.094;4.330;2022-07-19T13:56:50;9.13;;;4.13;;
59223;SDS011;45592;52.094;4.330;2022-07-19T13:59:16;8.90;;;3.58;;
59223;SDS011;45592;52.094;4.330;2022-07-19T14:01:42;7.80;;;3.83;;
59223;SDS011;45592;52.094;4.330;2022-07-19T14:04:08;10.60;;;3.80;;
59223;SDS011;45592;52.094;4.330;2022-07-19T14:06:33;7.22;;;3.55;;
59223;SDS011;45592;52.094;4.330;2022-07-19T14:08:58;9.43;;;3.92;;
59223;SDS011;45592;52.094;4.330;2022-07-19T14:11:24;9.77;;;3.78;;
59223;SDS011;45592;52.094;4.330;2022-07-19T14:13:49;7.72;;;3.45;;
59223;SDS011;45592;52.094;4.330;2022-07-19T14:16:14;8.18;;;3.72;;
59223;SDS011;45592;52.094;4.330;2022-07-19T14:18:40;7.50;;;3.40;;
59223;SDS011;45592;52.094;4.330;2022-07-19T14:21:06;6.70;;;3.38;;
59223;SDS011;45592;52.094;4.330;2022-07-19T14:23:31;8.10;;;3.20;;
59223;SDS011;45592;52.094;4.330;2022-07-19T14:25:57;7.57;;;3.38;;
59223;SDS011;45592;52.094;4.330;2022-07-19T14:28:22;8.20;;;3.33;;
59223;SDS011;45592;52.094;4.330;2022-07-19T14:30:48;7.55;;;3.80;;
59223;SDS011;45592;52.094;4.330;2022-07-19T14:33:14;6.65;;;2.80;;
59223;SDS011;45592;52.094;4.330;2022-07-19T14:35:39;5.68;;;2.72;;
59223;SDS011;45592;52.094;4.330;2022-07-19T14:38:05;6.90;;;3.38;;
59223;SDS011;45592;52.094;4.330;2022-07-19T14:40:30;8.35;;;3.78;;
59223;SDS011;45592;52.094;4.330;2022-07-19T14:42:56;5.72;;;3.13;;
59223;SDS011;45592;52.094;4.330;2022-07-19T14:45:21;8.82;;;2.78;;
59223;SDS011;45592;52.094;4.330;2022-07-19T14:47:47;7.80;;;3.25;;
59223;SDS011;45592;52.094;4.330;2022-07-19T14:50:12;8.48;;;3.20;;
59223;SDS011;45592;52.094;4.330;2022-07-19T14:52:38;8.25;;;3.92;;
59223;SDS011;45592;52.094;4.330;2022-07-19T14:55:07;7.43;;;3.55;;
59223;SDS011;45592;52.094;4.330;2022-07-19T14:57:33;7.20;;;3.00;;
59223;SDS011;45592;52.094;4.330;2022-07-19T14:59:59;8.30;;;3.13;;
59223;SDS011;45592;52.094;4.330;2022-07-19T15:02:26;9.68;;;3.40;;
59223;SDS011;45592;52.094;4.330;2022-07-19T15:04:51;9.40;;;3.45;;
59223;SDS011;45592;52.094;4.330;2022-07-19T15:07:16;5.30;;;3.13;;